sensor_id;sensor_type;location;lat;lon;timestamp;P1;durP1;ratioP1;P2;durP2;ratioP2
45806;SDS011;31507;51.494;7.518;2023-05-31T00:02:12;25.80;;;17.90;;
45806;SDS011;31507;51.494;7.518;2023-05-31T00:04:41;26.42;;;17.60;;
45806;SDS011;31507;51.494;7.518;2023-05-31T00:07:06;30.75;;;17.70;;
45806;SDS011;31507;51.494;7.518;2023-05-31T00:09:32;28.30;;;18.60;;
45806;SDS011;31507;51.494;7.518;2023-05-31T00:11:58;31.63;;;18.73;;
45806;SDS011;31507;51.494;7.518;2023-05-31T00:14:24;32.25;;;19.88;;
45806;SDS011;31507;51.494;7.518;2023-05-31T00:16:50;28.33;;;19.90;;
45806;SDS011;31507;51.494;7.518;2023-05-31T00:19:16;32.42;;;19.67;;
45806;SDS011;31507;51.494;7.518;2023-05-31T00:21:45;31.23;;;19.77;;
45806;SDS011;31507;51.494;7.518;2023-05-31T00:24:15;36.67;;;21.10;;
45806;SDS011;31507;51.494;7.518;2023-05-31T00:26:41;43.50;;;20.90;;
45806;SDS011;31507;51.494;7.518;2023-05-31T00:29:07;41.65;;;20.98;;
45806;SDS011;31507;51.494;7.518;2023-05-31T00:31:32;34.10;;;20.13;;
45806;SDS011;31507;51.494;7.518;2023-05-31T00:33:58;35.30;;;21.02;;
45806;SDS011;31507;51.494;7.518;2023-05-31T00:36:24;37.28;;;21.70;;
45806;SDS011;31507;51.494;7.518;2023-05-31T00:38:49;39.75;;;21.90;;
45806;SDS011;31507;51.494;7.518;2023-05-31T00:41:15;35.63;;;21.15;;
45806;SDS011;31507;51.494;7.518;2023-05-31T00:43:42;36.38;;;22.83;;
45806;SDS011;31507;51.494;7.518;2023-05-31T00:46:09;41.20;;;21.17;;
45806;SDS011;31507;51.494;7.518;2023-05-31T00:48:45;36.83;;;22.60;;
45806;SDS011;31507;51.494;7.518;2023-05-31T00:51:10;37.85;;;22.48;;
45806;SDS011;31507;51.494;7.518;2023-05-31T00:53:37;38.35;;;21.52;;
45806;SDS011;31507;51.494;7.518;2023-05-31T00:56:03;38.95;;;23.65;;
45806;SDS011;31507;51.494;7.518;2023-05-31T00:58:29;43.03;;;22.90;;
45806;SDS011;31507;51.494;7.518;2023-05-31T01:00:56;41.10;;;23.80;;
45806;SDS011;31507;51.494;7.518;2023-05-31T01:03:22;42.78;;;25.15;;
45806;SDS011;31507;51.494;7.518;2023-05-31T01:05:48;45.70;;;26.48;;
45806;SDS011;31507;51.494;7.518;2023-05-31T01:08:14;47.63;;;25.95;;
45806;SDS011;31507;51.494;7.518;2023-05-31T01:10:41;46.95;;;26.83;;
45806;SDS011;31507;51.494;7.518;2023-05-31T01:13:12;50.42;;;26.70;;
45806;SDS011;31507;51.494;7.518;2023-05-31T01:18:37;46.90;;;25.17;;
45806;SDS011;31507;51.494;7.518;2023-05-31T01:21:19;46.42;;;25.90;;
45806;SDS011;31507;51.494;7.518;2023-05-31T01:27:03;48.30;;;26.90;;
45806;SDS011;31507;51.494;7.518;2023-05-31T01:29:30;49.60;;;28.58;;
45806;SDS011;31507;51.494;7.518;2023-05-31T01:32:00;51.35;;;28.70;;
45806;SDS011;31507;51.494;7.518;2023-05-31T01:34:27;51.53;;;29.00;;
45806;SDS011;31507;51.494;7.518;2023-05-31T01:36:53;51.00;;;28.70;;
45806;SDS011;31507;51.494;7.518;2023-05-31T01:39:19;54.35;;;28.55;;
45806;SDS011;31507;51.494;7.518;2023-05-31T01:41:46;51.85;;;26.98;;
45806;SDS011;31507;51.494;7.518;2023-05-31T01:44:13;51.65;;;29.05;;
45806;SDS011;31507;51.494;7.518;2023-05-31T01:46:40;56.78;;;29.13;;
45806;SDS011;31507;51.494;7.518;2023-05-31T01:49:07;52.63;;;29.05;;
45806;SDS011;31507;51.494;7.518;2023-05-31T01:51:34;57.85;;;29.60;;
45806;SDS011;31507;51.494;7.518;2023-05-31T01:54:02;56.95;;;29.05;;
45806;SDS011;31507;51.494;7.518;2023-05-31T01:56:28;58.08;;;28.70;;
45806;SDS011;31507;51.494;7.518;2023-05-31T01:58:56;52.47;;;28.08;;
45806;SDS011;31507;51.494;7.518;2023-05-31T02:01:23;54.33;;;27.08;;
45806;SDS011;31507;51.494;7.518;2023-05-31T02:03:50;58.72;;;29.63;;
45806;SDS011;31507;51.494;7.518;2023-05-31T02:06:18;53.75;;;28.33;;
45806;SDS011;31507;51.494;7.518;2023-05-31T02:08:44;54.13;;;29.55;;
45806;SDS011;31507;51.494;7.518;2023-05-31T02:11:10;54.30;;;29.38;;
45806;SDS011;31507;51.494;7.518;2023-05-31T02:13:36;54.50;;;30.77;;
45806;SDS011;31507;51.494;7.518;2023-05-31T02:16:02;54.85;;;30.27;;
45806;SDS011;31507;51.494;7.518;2023-05-31T02:18:30;56.75;;;30.23;;
45806;SDS011;31507;51.494;7.518;2023-05-31T02:20:57;54.45;;;29.67;;
45806;SDS011;31507;51.494;7.518;2023-05-31T02:23:23;64.35;;;31.10;;
45806;SDS011;31507;51.494;7.518;2023-05-31T02:25:49;62.35;;;31.88;;
45806;SDS011;31507;51.494;7.518;2023-05-31T02:28:15;63.90;;;30.27;;
45806;SDS011;31507;51.494;7.518;2023-05-31T02:30:52;56.10;;;31.35;;
45806;SDS011;31507;51.494;7.518;2023-05-31T02:33:19;61.70;;;31.15;;
45806;SDS011;31507;51.494;7.518;2023-05-31T02:35:45;61.97;;;32.33;;
45806;SDS011;31507;51.494;7.518;2023-05-31T02:38:10;64.95;;;32.88;;
45806;SDS011;31507;51.494;7.518;2023-05-31T02:40:36;64.78;;;33.42;;
45806;SDS011;31507;51.494;7.518;2023-05-31T02:43:01;61.05;;;31.75;;
45806;SDS011;31507;51.494;7.518;2023-05-31T02:45:27;67.22;;;31.40;;
45806;SDS011;31507;51.494;7.518;2023-05-31T02:47:53;55.08;;;30.73;;
45806;SDS011;31507;51.494;7.518;2023-05-31T02:50:18;62.15;;;33.38;;
45806;SDS011;31507;51.494;7.518;2023-05-31T02:52:44;71.07;;;33.97;;
45806;SDS011;31507;51.494;7.518;2023-05-31T02:55:10;66.13;;;35.15;;
45806;SDS011;31507;51.494;7.518;2023-05-31T02:57:35;64.20;;;33.85;;
45806;SDS011;31507;51.494;7.518;2023-05-31T03:00:02;74.53;;;34.80;;
45806;SDS011;31507;51.494;7.518;2023-05-31T03:02:36;70.07;;;35.45;;
45806;SDS011;31507;51.494;7.518;2023-05-31T03:05:02;75.10;;;37.15;;
45806;SDS011;31507;51.494;7.518;2023-05-31T03:07:30;70.03;;;37.72;;
45806;SDS011;31507;51.494;7.518;2023-05-31T03:09:55;79.05;;;38.70;;
45806;SDS011;31507;51.494;7.518;2023-05-31T03:12:21;82.90;;;40.90;;
45806;SDS011;31507;51.494;7.518;2023-05-31T03:14:46;81.13;;;39.30;;
45806;SDS011;31507;51.494;7.518;2023-05-31T03:17:13;85.28;;;40.22;;
45806;SDS011;31507;51.494;7.518;2023-05-31T03:19:40;87.55;;;41.90;;
45806;SDS011;31507;51.494;7.518;2023-05-31T03:22:05;88.50;;;40.97;;
45806;SDS011;31507;51.494;7.518;2023-05-31T03:24:31;86.32;;;42.50;;
45806;SDS011;31507;51.494;7.518;2023-05-31T03:26:57;88.75;;;41.10;;
45806;SDS011;31507;51.494;7.518;2023-05-31T03:29:22;83.68;;;41.33;;
45806;SDS011;31507;51.494;7.518;2023-05-31T03:31:48;84.93;;;42.33;;
45806;SDS011;31507;51.494;7.518;2023-05-31T03:34:14;81.57;;;40.13;;
45806;SDS011;31507;51.494;7.518;2023-05-31T03:36:40;93.38;;;43.05;;
45806;SDS011;31507;51.494;7.518;2023-05-31T03:39:06;92.20;;;41.50;;
45806;SDS011;31507;51.494;7.518;2023-05-31T03:41:32;93.43;;;44.13;;
45806;SDS011;31507;51.494;7.518;2023-05-31T03:43:57;86.47;;;41.33;;
45806;SDS011;31507;51.494;7.518;2023-05-31T03:46:24;97.28;;;42.47;;
45806;SDS011;31507;51.494;7.518;2023-05-31T03:48:50;94.82;;;42.05;;
45806;SDS011;31507;51.494;7.518;2023-05-31T03:51:15;95.95;;;43.80;;
45806;SDS011;31507;51.494;7.518;2023-05-31T03:53:41;89.28;;;42.08;;
45806;SDS011;31507;51.494;7.518;2023-05-31T03:56:07;93.25;;;41.50;;
45806;SDS011;31507;51.494;7.518;2023-05-31T03:58:32;88.75;;;41.53;;
45806;SDS011;31507;51.494;7.518;2023-05-31T04:00:58;91.00;;;42.10;;
45806;SDS011;31507;51.494;7.518;2023-05-31T04:03:24;92.53;;;41.47;;
45806;SDS011;31507;51.494;7.518;2023-05-31T04:05:50;86.50;;;40.03;;
45806;SDS011;31507;51.494;7.518;2023-05-31T04:08:15;86.57;;;41.78;;
45806;SDS011;31507;51.494;7.518;2023-05-31T04:10:42;86.57;;;41.80;;
45806;SDS011;31507;51.494;7.518;2023-05-31T04:13:07;96.50;;;44.80;;
45806;SDS011;31507;51.494;7.518;2023-05-31T04:15:33;99.97;;;44.97;;
45806;SDS011;31507;51.494;7.518;2023-05-31T04:17:58;92.35;;;44.45;;
45806;SDS011;31507;51.494;7.518;2023-05-31T04:20:24;87.68;;;41.03;;
45806;SDS011;31507;51.494;7.518;2023-05-31T04:22:50;85.65;;;42.65;;
45806;SDS011;31507;51.494;7.518;2023-05-31T04:25:15;92.43;;;42.58;;
45806;SDS011;31507;51.494;7.518;2023-05-31T04:27:42;93.38;;;41.90;;
45806;SDS011;31507;51.494;7.518;2023-05-31T04:30:08;86.78;;;42.25;;
45806;SDS011;31507;51.494;7.518;2023-05-31T04:32:34;109.18;;;56.20;;
45806;SDS011;31507;51.494;7.518;2023-05-31T04:35:00;86.25;;;43.70;;
45806;SDS011;31507;51.494;7.518;2023-05-31T04:37:28;88.32;;;40.90;;
45806;SDS011;31507;51.494;7.518;2023-05-31T04:39:56;101.72;;;53.65;;
45806;SDS011;31507;51.494;7.518;2023-05-31T04:42:23;82.53;;;40.80;;
45806;SDS011;31507;51.494;7.518;2023-05-31T04:44:53;84.00;;;43.13;;
45806;SDS011;31507;51.494;7.518;2023-05-31T04:47:29;77.50;;;39.53;;
45806;SDS011;31507;51.494;7.518;2023-05-31T04:49:56;90.22;;;44.35;;
45806;SDS011;31507;51.494;7.518;2023-05-31T04:52:25;67.00;;;34.97;;
45806;SDS011;31507;51.494;7.518;2023-05-31T04:54:53;72.30;;;36.55;;
45806;SDS011;31507;51.494;7.518;2023-05-31T04:57:23;65.72;;;35.25;;
45806;SDS011;31507;51.494;7.518;2023-05-31T04:59:49;66.90;;;35.15;;
45806;SDS011;31507;51.494;7.518;2023-05-31T05:02:16;66.40;;;38.03;;
45806;SDS011;31507;51.494;7.518;2023-05-31T05:04:42;53.67;;;32.88;;
45806;SDS011;31507;51.494;7.518;2023-05-31T05:07:12;53.72;;;32.75;;
45806;SDS011;31507;51.494;7.518;2023-05-31T05:09:38;52.10;;;30.40;;
45806;SDS011;31507;51.494;7.518;2023-05-31T05:12:04;46.53;;;28.80;;
45806;SDS011;31507;51.494;7.518;2023-05-31T05:14:31;46.00;;;27.55;;
45806;SDS011;31507;51.494;7.518;2023-05-31T05:16:56;45.95;;;27.67;;
45806;SDS011;31507;51.494;7.518;2023-05-31T05:19:22;41.55;;;27.17;;
45806;SDS011;31507;51.494;7.518;2023-05-31T05:21:48;40.13;;;26.23;;
45806;SDS011;31507;51.494;7.518;2023-05-31T05:24:13;36.45;;;25.23;;
45806;SDS011;31507;51.494;7.518;2023-05-31T05:26:40;34.33;;;22.65;;
45806;SDS011;31507;51.494;7.518;2023-05-31T05:29:06;27.77;;;21.83;;
45806;SDS011;31507;51.494;7.518;2023-05-31T05:31:32;26.45;;;19.42;;
45806;SDS011;31507;51.494;7.518;2023-05-31T05:33:58;35.33;;;20.10;;
45806;SDS011;31507;51.494;7.518;2023-05-31T05:36:24;29.70;;;18.70;;
45806;SDS011;31507;51.494;7.518;2023-05-31T05:38:50;22.02;;;16.83;;
45806;SDS011;31507;51.494;7.518;2023-05-31T05:41:16;25.70;;;16.25;;
45806;SDS011;31507;51.494;7.518;2023-05-31T05:43:41;21.92;;;14.25;;
45806;SDS011;31507;51.494;7.518;2023-05-31T05:46:07;17.90;;;14.57;;
45806;SDS011;31507;51.494;7.518;2023-05-31T05:48:33;18.45;;;13.82;;
45806;SDS011;31507;51.494;7.518;2023-05-31T05:50:59;19.35;;;12.48;;
45806;SDS011;31507;51.494;7.518;2023-05-31T05:53:25;18.63;;;12.88;;
45806;SDS011;31507;51.494;7.518;2023-05-31T05:55:51;21.73;;;12.18;;
45806;SDS011;31507;51.494;7.518;2023-05-31T05:58:18;16.63;;;11.90;;
45806;SDS011;31507;51.494;7.518;2023-05-31T06:00:44;16.75;;;12.40;;
45806;SDS011;31507;51.494;7.518;2023-05-31T06:03:11;18.55;;;12.07;;
45806;SDS011;31507;51.494;7.518;2023-05-31T06:05:37;16.80;;;11.93;;
45806;SDS011;31507;51.494;7.518;2023-05-31T06:08:03;21.25;;;12.38;;
45806;SDS011;31507;51.494;7.518;2023-05-31T06:10:29;19.13;;;10.95;;
45806;SDS011;31507;51.494;7.518;2023-05-31T06:12:54;14.13;;;11.57;;
45806;SDS011;31507;51.494;7.518;2023-05-31T06:15:20;13.15;;;11.38;;
45806;SDS011;31507;51.494;7.518;2023-05-31T06:17:45;14.57;;;10.80;;
45806;SDS011;31507;51.494;7.518;2023-05-31T06:20:13;18.00;;;11.55;;
45806;SDS011;31507;51.494;7.518;2023-05-31T06:22:39;18.55;;;10.52;;
45806;SDS011;31507;51.494;7.518;2023-05-31T06:25:05;16.38;;;10.48;;
45806;SDS011;31507;51.494;7.518;2023-05-31T06:27:31;16.85;;;10.43;;
45806;SDS011;31507;51.494;7.518;2023-05-31T06:29:56;15.75;;;10.43;;
45806;SDS011;31507;51.494;7.518;2023-05-31T06:32:25;13.02;;;10.38;;
45806;SDS011;31507;51.494;7.518;2023-05-31T06:34:54;16.02;;;10.70;;
45806;SDS011;31507;51.494;7.518;2023-05-31T06:37:20;14.43;;;10.13;;
45806;SDS011;31507;51.494;7.518;2023-05-31T06:39:49;15.15;;;10.50;;
45806;SDS011;31507;51.494;7.518;2023-05-31T06:42:15;16.30;;;10.15;;
45806;SDS011;31507;51.494;7.518;2023-05-31T06:44:41;19.33;;;10.43;;
45806;SDS011;31507;51.494;7.518;2023-05-31T06:47:08;16.13;;;9.30;;
45806;SDS011;31507;51.494;7.518;2023-05-31T06:49:34;16.52;;;9.45;;
45806;SDS011;31507;51.494;7.518;2023-05-31T06:52:00;14.80;;;9.50;;
45806;SDS011;31507;51.494;7.518;2023-05-31T06:54:26;14.55;;;8.77;;
45806;SDS011;31507;51.494;7.518;2023-05-31T06:56:53;12.55;;;8.73;;
45806;SDS011;31507;51.494;7.518;2023-05-31T06:59:19;14.88;;;8.60;;
45806;SDS011;31507;51.494;7.518;2023-05-31T07:01:44;16.77;;;9.07;;
45806;SDS011;31507;51.494;7.518;2023-05-31T07:04:10;12.40;;;8.48;;
45806;SDS011;31507;51.494;7.518;2023-05-31T07:06:36;14.98;;;9.48;;
45806;SDS011;31507;51.494;7.518;2023-05-31T07:09:03;15.95;;;8.98;;
45806;SDS011;31507;51.494;7.518;2023-05-31T07:11:29;11.45;;;9.05;;
45806;SDS011;31507;51.494;7.518;2023-05-31T07:13:55;15.45;;;9.35;;
45806;SDS011;31507;51.494;7.518;2023-05-31T07:16:26;11.52;;;7.80;;
45806;SDS011;31507;51.494;7.518;2023-05-31T07:18:55;10.38;;;7.30;;
45806;SDS011;31507;51.494;7.518;2023-05-31T07:21:20;14.45;;;7.70;;
45806;SDS011;31507;51.494;7.518;2023-05-31T07:23:46;9.77;;;7.47;;
45806;SDS011;31507;51.494;7.518;2023-05-31T07:26:16;13.85;;;7.60;;
45806;SDS011;31507;51.494;7.518;2023-05-31T07:28:55;14.23;;;8.25;;
45806;SDS011;31507;51.494;7.518;2023-05-31T07:31:21;17.80;;;7.95;;
45806;SDS011;31507;51.494;7.518;2023-05-31T07:33:47;20.98;;;7.68;;
45806;SDS011;31507;51.494;7.518;2023-05-31T07:36:13;19.25;;;7.60;;
45806;SDS011;31507;51.494;7.518;2023-05-31T07:38:38;11.63;;;6.70;;
45806;SDS011;31507;51.494;7.518;2023-05-31T07:41:04;10.70;;;5.35;;
45806;SDS011;31507;51.494;7.518;2023-05-31T07:43:30;9.68;;;5.78;;
45806;SDS011;31507;51.494;7.518;2023-05-31T07:45:57;11.90;;;5.32;;
45806;SDS011;31507;51.494;7.518;2023-05-31T07:48:23;8.60;;;5.78;;
45806;SDS011;31507;51.494;7.518;2023-05-31T07:50:49;14.85;;;6.43;;
45806;SDS011;31507;51.494;7.518;2023-05-31T07:53:15;11.90;;;6.72;;
45806;SDS011;31507;51.494;7.518;2023-05-31T07:55:41;9.15;;;5.97;;
45806;SDS011;31507;51.494;7.518;2023-05-31T07:58:06;16.25;;;6.57;;
45806;SDS011;31507;51.494;7.518;2023-05-31T08:00:32;12.40;;;6.18;;
45806;SDS011;31507;51.494;7.518;2023-05-31T08:02:58;15.18;;;6.03;;
45806;SDS011;31507;51.494;7.518;2023-05-31T08:05:23;11.35;;;6.75;;
45806;SDS011;31507;51.494;7.518;2023-05-31T08:07:49;14.13;;;5.82;;
45806;SDS011;31507;51.494;7.518;2023-05-31T08:10:15;15.90;;;5.70;;
45806;SDS011;31507;51.494;7.518;2023-05-31T08:12:41;20.15;;;6.90;;
45806;SDS011;31507;51.494;7.518;2023-05-31T08:15:07;11.57;;;6.28;;
45806;SDS011;31507;51.494;7.518;2023-05-31T08:17:33;11.45;;;5.90;;
45806;SDS011;31507;51.494;7.518;2023-05-31T08:19:59;10.02;;;6.38;;
45806;SDS011;31507;51.494;7.518;2023-05-31T08:22:25;11.27;;;5.85;;
45806;SDS011;31507;51.494;7.518;2023-05-31T08:24:51;16.20;;;6.40;;
45806;SDS011;31507;51.494;7.518;2023-05-31T08:27:16;16.08;;;5.95;;
45806;SDS011;31507;51.494;7.518;2023-05-31T08:29:45;13.23;;;5.45;;
45806;SDS011;31507;51.494;7.518;2023-05-31T08:32:11;9.30;;;4.60;;
45806;SDS011;31507;51.494;7.518;2023-05-31T08:34:36;7.57;;;4.28;;
45806;SDS011;31507;51.494;7.518;2023-05-31T08:37:02;11.68;;;4.82;;
45806;SDS011;31507;51.494;7.518;2023-05-31T08:39:28;17.67;;;5.30;;
45806;SDS011;31507;51.494;7.518;2023-05-31T08:42:01;11.07;;;5.00;;
45806;SDS011;31507;51.494;7.518;2023-05-31T08:44:29;9.75;;;5.07;;
45806;SDS011;31507;51.494;7.518;2023-05-31T08:47:39;8.77;;;4.78;;
45806;SDS011;31507;51.494;7.518;2023-05-31T08:49:53;12.60;;;5.03;;
45806;SDS011;31507;51.494;7.518;2023-05-31T08:52:21;11.02;;;5.50;;
45806;SDS011;31507;51.494;7.518;2023-05-31T08:54:48;9.77;;;4.63;;
45806;SDS011;31507;51.494;7.518;2023-05-31T08:57:15;7.78;;;4.82;;
45806;SDS011;31507;51.494;7.518;2023-05-31T08:59:42;10.38;;;4.50;;
45806;SDS011;31507;51.494;7.518;2023-05-31T09:02:09;9.57;;;4.88;;
45806;SDS011;31507;51.494;7.518;2023-05-31T09:04:38;13.48;;;4.68;;
45806;SDS011;31507;51.494;7.518;2023-05-31T09:07:04;8.40;;;4.00;;
45806;SDS011;31507;51.494;7.518;2023-05-31T09:09:30;8.20;;;4.50;;
45806;SDS011;31507;51.494;7.518;2023-05-31T09:11:56;9.32;;;4.38;;
45806;SDS011;31507;51.494;7.518;2023-05-31T09:14:22;12.38;;;4.35;;
45806;SDS011;31507;51.494;7.518;2023-05-31T09:16:49;12.18;;;4.35;;
45806;SDS011;31507;51.494;7.518;2023-05-31T09:19:15;8.60;;;4.00;;
45806;SDS011;31507;51.494;7.518;2023-05-31T09:21:41;10.13;;;4.05;;
45806;SDS011;31507;51.494;7.518;2023-05-31T09:24:09;10.60;;;3.83;;
45806;SDS011;31507;51.494;7.518;2023-05-31T09:26:39;6.32;;;3.03;;
45806;SDS011;31507;51.494;7.518;2023-05-31T09:29:12;5.88;;;3.42;;
45806;SDS011;31507;51.494;7.518;2023-05-31T09:31:38;11.68;;;3.40;;
45806;SDS011;31507;51.494;7.518;2023-05-31T09:34:03;9.70;;;3.35;;
45806;SDS011;31507;51.494;7.518;2023-05-31T09:36:30;12.20;;;3.00;;
45806;SDS011;31507;51.494;7.518;2023-05-31T09:39:00;7.18;;;3.70;;
45806;SDS011;31507;51.494;7.518;2023-05-31T09:41:29;12.60;;;3.53;;
45806;SDS011;31507;51.494;7.518;2023-05-31T09:43:55;6.00;;;2.83;;
45806;SDS011;31507;51.494;7.518;2023-05-31T09:46:21;9.50;;;3.65;;
45806;SDS011;31507;51.494;7.518;2023-05-31T09:49:04;12.30;;;3.28;;
45806;SDS011;31507;51.494;7.518;2023-05-31T09:51:31;8.02;;;3.20;;
45806;SDS011;31507;51.494;7.518;2023-05-31T09:53:58;12.32;;;3.40;;
45806;SDS011;31507;51.494;7.518;2023-05-31T09:56:27;10.05;;;2.55;;
45806;SDS011;31507;51.494;7.518;2023-05-31T09:58:55;7.43;;;2.90;;
45806;SDS011;31507;51.494;7.518;2023-05-31T10:01:22;11.00;;;3.10;;
45806;SDS011;31507;51.494;7.518;2023-05-31T10:03:50;14.02;;;3.22;;
45806;SDS011;31507;51.494;7.518;2023-05-31T10:06:17;10.45;;;2.88;;
45806;SDS011;31507;51.494;7.518;2023-05-31T10:08:43;9.13;;;2.38;;
45806;SDS011;31507;51.494;7.518;2023-05-31T10:11:11;17.77;;;3.15;;
45806;SDS011;31507;51.494;7.518;2023-05-31T10:13:42;9.07;;;2.35;;
45806;SDS011;31507;51.494;7.518;2023-05-31T10:16:10;7.03;;;2.70;;
45806;SDS011;31507;51.494;7.518;2023-05-31T10:18:37;5.00;;;2.28;;
45806;SDS011;31507;51.494;7.518;2023-05-31T10:21:09;5.05;;;2.13;;
45806;SDS011;31507;51.494;7.518;2023-05-31T10:23:56;9.98;;;2.70;;
45806;SDS011;31507;51.494;7.518;2023-05-31T10:29:33;8.80;;;2.50;;
45806;SDS011;31507;51.494;7.518;2023-05-31T10:32:13;6.10;;;2.63;;
45806;SDS011;31507;51.494;7.518;2023-05-31T10:34:44;11.02;;;2.40;;
45806;SDS011;31507;51.494;7.518;2023-05-31T10:37:11;5.35;;;2.33;;
45806;SDS011;31507;51.494;7.518;2023-05-31T10:39:54;9.93;;;2.05;;
45806;SDS011;31507;51.494;7.518;2023-05-31T10:47:42;12.35;;;2.58;;
45806;SDS011;31507;51.494;7.518;2023-05-31T10:50:19;3.90;;;2.00;;
45806;SDS011;31507;51.494;7.518;2023-05-31T10:52:49;5.07;;;2.40;;
45806;SDS011;31507;51.494;7.518;2023-05-31T10:55:16;6.88;;;2.60;;
45806;SDS011;31507;51.494;7.518;2023-05-31T10:57:42;10.52;;;2.65;;
45806;SDS011;31507;51.494;7.518;2023-05-31T11:00:09;7.38;;;2.20;;
45806;SDS011;31507;51.494;7.518;2023-05-31T11:02:48;10.10;;;2.40;;
45806;SDS011;31507;51.494;7.518;2023-05-31T11:07:50;13.88;;;3.33;;
45806;SDS011;31507;51.494;7.518;2023-05-31T11:10:29;9.32;;;2.47;;
45806;SDS011;31507;51.494;7.518;2023-05-31T11:13:03;8.57;;;2.63;;
45806;SDS011;31507;51.494;7.518;2023-05-31T11:15:39;8.90;;;2.08;;
45806;SDS011;31507;51.494;7.518;2023-05-31T11:18:09;9.45;;;2.50;;
45806;SDS011;31507;51.494;7.518;2023-05-31T11:26:10;5.72;;;2.35;;
45806;SDS011;31507;51.494;7.518;2023-05-31T11:34:31;8.10;;;2.17;;
45806;SDS011;31507;51.494;7.518;2023-05-31T11:37:00;8.52;;;2.08;;
45806;SDS011;31507;51.494;7.518;2023-05-31T11:39:27;6.32;;;2.38;;
45806;SDS011;31507;51.494;7.518;2023-05-31T11:41:54;11.20;;;2.17;;
45806;SDS011;31507;51.494;7.518;2023-05-31T11:44:24;5.25;;;2.15;;
45806;SDS011;31507;51.494;7.518;2023-05-31T11:46:56;9.73;;;2.42;;
45806;SDS011;31507;51.494;7.518;2023-05-31T11:51:55;4.13;;;2.00;;
45806;SDS011;31507;51.494;7.518;2023-05-31T11:54:27;9.10;;;2.13;;
45806;SDS011;31507;51.494;7.518;2023-05-31T11:57:04;5.10;;;2.03;;
45806;SDS011;31507;51.494;7.518;2023-05-31T11:59:34;4.18;;;2.05;;
45806;SDS011;31507;51.494;7.518;2023-05-31T12:02:02;6.90;;;2.28;;
45806;SDS011;31507;51.494;7.518;2023-05-31T12:04:29;4.93;;;1.90;;
45806;SDS011;31507;51.494;7.518;2023-05-31T12:06:57;5.95;;;2.13;;
45806;SDS011;31507;51.494;7.518;2023-05-31T12:09:24;6.07;;;2.13;;
45806;SDS011;31507;51.494;7.518;2023-05-31T12:11:50;6.88;;;1.80;;
45806;SDS011;31507;51.494;7.518;2023-05-31T12:14:17;7.68;;;2.08;;
45806;SDS011;31507;51.494;7.518;2023-05-31T12:16:42;5.35;;;1.70;;
45806;SDS011;31507;51.494;7.518;2023-05-31T12:19:12;8.27;;;1.80;;
45806;SDS011;31507;51.494;7.518;2023-05-31T12:21:38;20.80;;;2.47;;
45806;SDS011;31507;51.494;7.518;2023-05-31T12:24:05;9.25;;;1.95;;
45806;SDS011;31507;51.494;7.518;2023-05-31T12:26:39;4.65;;;1.70;;
45806;SDS011;31507;51.494;7.518;2023-05-31T12:29:07;13.65;;;2.35;;
45806;SDS011;31507;51.494;7.518;2023-05-31T12:31:34;8.25;;;2.10;;
45806;SDS011;31507;51.494;7.518;2023-05-31T12:36:36;6.28;;;1.80;;
45806;SDS011;31507;51.494;7.518;2023-05-31T12:39:09;15.75;;;2.08;;
45806;SDS011;31507;51.494;7.518;2023-05-31T12:41:49;5.05;;;1.88;;
45806;SDS011;31507;51.494;7.518;2023-05-31T12:44:17;5.53;;;1.95;;
45806;SDS011;31507;51.494;7.518;2023-05-31T12:46:47;12.10;;;2.15;;
45806;SDS011;31507;51.494;7.518;2023-05-31T12:49:21;8.80;;;1.98;;
45806;SDS011;31507;51.494;7.518;2023-05-31T12:52:07;5.43;;;2.10;;
45806;SDS011;31507;51.494;7.518;2023-05-31T12:54:39;7.13;;;2.10;;
45806;SDS011;31507;51.494;7.518;2023-05-31T12:57:07;8.30;;;2.42;;
45806;SDS011;31507;51.494;7.518;2023-05-31T12:59:34;10.13;;;2.40;;
45806;SDS011;31507;51.494;7.518;2023-05-31T13:02:00;5.68;;;2.00;;
45806;SDS011;31507;51.494;7.518;2023-05-31T13:04:26;7.93;;;2.20;;
45806;SDS011;31507;51.494;7.518;2023-05-31T13:06:52;11.02;;;2.38;;
45806;SDS011;31507;51.494;7.518;2023-05-31T13:09:18;12.00;;;2.97;;
45806;SDS011;31507;51.494;7.518;2023-05-31T13:11:45;11.55;;;3.05;;
45806;SDS011;31507;51.494;7.518;2023-05-31T13:14:15;4.85;;;2.17;;
45806;SDS011;31507;51.494;7.518;2023-05-31T13:16:43;13.18;;;2.75;;
45806;SDS011;31507;51.494;7.518;2023-05-31T13:19:09;8.88;;;2.65;;
45806;SDS011;31507;51.494;7.518;2023-05-31T13:21:35;5.68;;;2.45;;
45806;SDS011;31507;51.494;7.518;2023-05-31T13:24:04;15.32;;;3.05;;
45806;SDS011;31507;51.494;7.518;2023-05-31T13:26:31;9.13;;;2.58;;
45806;SDS011;31507;51.494;7.518;2023-05-31T13:28:58;3.85;;;2.50;;
45806;SDS011;31507;51.494;7.518;2023-05-31T13:31:26;7.50;;;2.30;;
45806;SDS011;31507;51.494;7.518;2023-05-31T13:33:52;15.15;;;2.70;;
45806;SDS011;31507;51.494;7.518;2023-05-31T13:36:19;7.10;;;2.90;;
45806;SDS011;31507;51.494;7.518;2023-05-31T13:38:45;7.30;;;2.58;;
45806;SDS011;31507;51.494;7.518;2023-05-31T13:41:11;8.55;;;2.80;;
45806;SDS011;31507;51.494;7.518;2023-05-31T13:43:37;9.48;;;2.88;;
45806;SDS011;31507;51.494;7.518;2023-05-31T13:46:03;5.57;;;2.17;;
45806;SDS011;31507;51.494;7.518;2023-05-31T13:48:30;5.78;;;2.50;;
45806;SDS011;31507;51.494;7.518;2023-05-31T13:50:57;6.40;;;2.20;;
45806;SDS011;31507;51.494;7.518;2023-05-31T13:53:23;7.68;;;2.55;;
45806;SDS011;31507;51.494;7.518;2023-05-31T13:55:48;10.25;;;2.88;;
45806;SDS011;31507;51.494;7.518;2023-05-31T13:58:15;8.25;;;2.47;;
45806;SDS011;31507;51.494;7.518;2023-05-31T14:00:41;7.65;;;2.80;;
45806;SDS011;31507;51.494;7.518;2023-05-31T14:03:06;9.82;;;2.50;;
45806;SDS011;31507;51.494;7.518;2023-05-31T14:05:32;4.22;;;2.35;;
45806;SDS011;31507;51.494;7.518;2023-05-31T14:07:58;6.40;;;2.15;;
45806;SDS011;31507;51.494;7.518;2023-05-31T14:10:24;5.93;;;2.38;;
45806;SDS011;31507;51.494;7.518;2023-05-31T14:12:50;6.63;;;2.20;;
45806;SDS011;31507;51.494;7.518;2023-05-31T14:15:16;6.80;;;2.10;;
45806;SDS011;31507;51.494;7.518;2023-05-31T14:17:42;10.40;;;2.22;;
45806;SDS011;31507;51.494;7.518;2023-05-31T14:20:08;7.25;;;2.25;;
45806;SDS011;31507;51.494;7.518;2023-05-31T14:22:35;6.80;;;2.75;;
45806;SDS011;31507;51.494;7.518;2023-05-31T14:25:00;6.97;;;2.25;;
45806;SDS011;31507;51.494;7.518;2023-05-31T14:27:26;9.40;;;2.40;;
45806;SDS011;31507;51.494;7.518;2023-05-31T14:29:52;10.10;;;2.58;;
45806;SDS011;31507;51.494;7.518;2023-05-31T14:32:17;9.10;;;2.40;;
45806;SDS011;31507;51.494;7.518;2023-05-31T14:34:43;4.65;;;1.95;;
45806;SDS011;31507;51.494;7.518;2023-05-31T14:37:10;4.53;;;2.33;;
45806;SDS011;31507;51.494;7.518;2023-05-31T14:39:36;7.45;;;2.30;;
45806;SDS011;31507;51.494;7.518;2023-05-31T14:42:02;7.22;;;2.33;;
45806;SDS011;31507;51.494;7.518;2023-05-31T14:44:28;11.02;;;2.90;;
45806;SDS011;31507;51.494;7.518;2023-05-31T14:46:54;9.65;;;2.90;;
45806;SDS011;31507;51.494;7.518;2023-05-31T14:49:21;6.18;;;2.13;;
45806;SDS011;31507;51.494;7.518;2023-05-31T14:51:47;12.07;;;2.53;;
45806;SDS011;31507;51.494;7.518;2023-05-31T14:54:14;11.23;;;4.07;;
45806;SDS011;31507;51.494;7.518;2023-05-31T14:56:41;6.93;;;2.75;;
45806;SDS011;31507;51.494;7.518;2023-05-31T14:59:07;17.38;;;3.40;;
45806;SDS011;31507;51.494;7.518;2023-05-31T15:01:33;7.18;;;2.58;;
45806;SDS011;31507;51.494;7.518;2023-05-31T15:03:58;7.97;;;2.95;;
45806;SDS011;31507;51.494;7.518;2023-05-31T15:06:27;9.93;;;3.20;;
45806;SDS011;31507;51.494;7.518;2023-05-31T15:08:53;13.90;;;2.83;;